Time;durP1;ratioP1;P1;durP2;ratioP2;P2;SDS_P1;SDS_P2;PMS_P1;PMS_P2;Temp;Humidity;BMP_temperature;BMP_pressure;BME280_temperature;BME280_humidity;BME280_pressure;Samples;Min_cycle;Max_cycle;Signal;HPM_P1;HPM_P2
2021/08/03 00:01:06;;;;;;;2.55;2.20;;;27.00;51.10;;;;;;5043291;28;20180;-76
2021/08/03 00:03:44;;;;;;;4.25;2.35;;;27.00;50.30;;;;;;5046553;28;20283;-76
2021/08/03 00:06:17;;;;;;;5.47;2.50;;;27.00;50.90;;;;;;5044196;28;20211;-74
2021/08/03 00:08:51;;;;;;;4.07;2.38;;;26.90;50.80;;;;;;5024392;28;20188;-76
2021/08/03 00:11:20;;;;;;;6.75;2.30;;;26.90;50.70;;;;;;5041784;28;20632;-76
2021/08/03 00:13:47;;;;;;;3.53;2.20;;;26.80;50.30;;;;;;5041287;28;20187;-76
2021/08/03 00:16:14;;;;;;;3.97;2.60;;;26.80;50.40;;;;;;5045030;28;20191;-76
2021/08/03 00:18:42;;;;;;;5.05;2.40;;;26.80;50.30;;;;;;5042187;28;20195;-75
2021/08/03 00:21:13;;;;;;;3.88;2.40;;;26.70;50.10;;;;;;5028499;28;20187;-75
2021/08/03 00:23:46;;;;;;;2.72;2.17;;;26.70;50.20;;;;;;5041771;28;20245;-76
2021/08/03 00:26:16;;;;;;;5.95;2.28;;;26.70;50.00;;;;;;5040849;28;20686;-76
2021/08/03 00:28:49;;;;;;;3.08;2.17;;;26.80;50.30;;;;;;5060847;28;20202;-76
2021/08/03 00:31:26;;;;;;;4.32;2.60;;;26.70;49.90;;;;;;5044466;28;20703;-76
2021/08/03 00:33:56;;;;;;;5.55;2.20;;;26.70;50.20;;;;;;5042428;28;20198;-76
2021/08/03 00:36:31;;;;;;;4.55;2.67;;;26.70;50.10;;;;;;5048280;28;20847;-75
2021/08/03 00:38:59;;;;;;;3.42;2.15;;;26.70;50.30;;;;;;5043237;28;20187;-76
2021/08/03 00:41:35;;;;;;;3.70;2.30;;;26.60;50.00;;;;;;5040281;28;20249;-76
2021/08/03 00:44:01;;;;;;;5.90;2.30;;;26.60;50.00;;;;;;5044853;28;20187;-75
2021/08/03 00:46:28;;;;;;;6.05;2.40;;;26.60;49.50;;;;;;5043341;28;20773;-76
2021/08/03 00:48:54;;;;;;;5.28;2.70;;;26.60;49.60;;;;;;5025853;28;20191;-75
2021/08/03 00:51:21;;;;;;;4.25;2.42;;;26.60;49.40;;;;;;5025857;28;20191;-76
2021/08/03 00:53:48;;;;;;;6.68;2.30;;;26.60;48.90;;;;;;5040175;28;20273;-75
2021/08/03 00:56:15;;;;;;;4.22;2.53;;;26.60;48.90;;;;;;5058498;28;20782;-76
2021/08/03 00:58:41;;;;;;;6.22;2.40;;;26.60;48.20;;;;;;5042759;28;20183;-76
2021/08/03 01:01:09;;;;;;;6.93;2.40;;;26.60;49.50;;;;;;5043385;28;20187;-76
2021/08/03 01:03:37;;;;;;;5.72;2.55;;;26.70;48.50;;;;;;5043679;28;20187;-75
2021/08/03 01:06:22;;;;;;;4.57;2.35;;;26.70;48.50;;;;;;5042719;28;20212;-76
2021/08/03 01:09:20;;;;;;;6.10;2.30;;;26.70;48.30;;;;;;5048393;28;21607;-76
2021/08/03 01:12:02;;;;;;;4.15;2.40;;;26.70;49.10;;;;;;5045565;28;20183;-76
2021/08/03 01:15:02;;;;;;;5.07;2.63;;;26.70;48.90;;;;;;5032655;28;20180;-76
2021/08/03 01:18:16;;;;;;;6.72;2.80;;;26.70;48.60;;;;;;5047593;28;20190;-75
2021/08/03 01:21:13;;;;;;;6.45;2.95;;;26.60;48.10;;;;;;5055374;28;20198;-76
2021/08/03 01:24:17;;;;;;;4.70;2.90;;;26.60;48.20;;;;;;5024667;28;20191;-76
2021/08/03 01:27:30;;;;;;;6.75;3.05;;;26.60;48.40;;;;;;5030378;28;20272;-76
2021/08/03 01:30:01;;;;;;;3.65;3.00;;;26.50;48.40;;;;;;5028969;28;20184;-76
2021/08/03 01:32:34;;;;;;;4.85;2.90;;;26.50;48.70;;;;;;5027469;28;20246;-75
2021/08/03 01:35:04;;;;;;;13.65;3.50;;;26.50;48.00;;;;;;5057617;28;20179;-75
2021/08/03 01:37:34;;;;;;;6.90;3.20;;;26.50;48.20;;;;;;5041895;28;20184;-75
2021/08/03 01:40:14;;;;;;;5.15;3.55;;;26.50;48.50;;;;;;5047559;28;20194;-76
2021/08/03 01:42:45;;;;;;;5.82;3.58;;;26.40;48.50;;;;;;5043431;28;20857;-76
2021/08/03 01:45:14;;;;;;;4.63;3.40;;;26.40;48.40;;;;;;5026202;28;20715;-75
2021/08/03 01:47:40;;;;;;;8.57;3.50;;;26.40;48.60;;;;;;5061548;28;21044;-75
2021/08/03 01:50:09;;;;;;;6.43;3.15;;;26.40;48.50;;;;;;5046875;28;20210;-76
2021/08/03 01:52:39;;;;;;;6.20;3.08;;;26.40;48.40;;;;;;5047176;28;20179;-75
2021/08/03 01:55:09;;;;;;;4.78;3.08;;;26.30;48.60;;;;;;5046171;28;20203;-75
2021/08/03 01:57:41;;;;;;;5.45;3.22;;;26.30;48.90;;;;;;5045672;28;20183;-75
2021/08/03 02:00:08;;;;;;;6.20;3.97;;;26.30;48.40;;;;;;5038566;28;20195;-75
2021/08/03 02:02:36;;;;;;;6.20;3.33;;;26.30;48.50;;;;;;5043244;28;20191;-76
2021/08/03 02:05:05;;;;;;;7.03;3.20;;;26.30;48.70;;;;;;5044736;28;20202;-76
2021/08/03 02:07:33;;;;;;;10.07;3.20;;;26.30;47.90;;;;;;5046769;28;20198;-75
2021/08/03 02:10:00;;;;;;;7.90;3.45;;;26.30;48.20;;;;;;5030419;28;20195;-74
2021/08/03 02:12:32;;;;;;;7.85;3.45;;;26.30;48.10;;;;;;5026546;28;20263;-75
2021/08/03 02:15:00;;;;;;;5.80;3.40;;;26.30;48.10;;;;;;5042782;28;20191;-75
2021/08/03 02:17:26;;;;;;;6.03;3.45;;;26.30;48.00;;;;;;5050506;28;20226;-76
2021/08/03 02:19:54;;;;;;;12.25;3.50;;;26.40;48.20;;;;;;5063153;28;20791;-75
2021/08/03 02:22:20;;;;;;;10.13;3.55;;;26.40;48.10;;;;;;5047865;28;20186;-76
2021/08/03 02:24:47;;;;;;;5.60;3.17;;;26.50;48.40;;;;;;5043236;28;20707;-75
2021/08/03 02:27:16;;;;;;;4.88;3.15;;;26.50;48.10;;;;;;5042373;28;20691;-75
2021/08/03 02:29:45;;;;;;;5.95;2.92;;;26.50;49.20;;;;;;5047464;28;20192;-75
2021/08/03 02:32:27;;;;;;;9.00;3.28;;;26.60;49.30;;;;;;5048976;28;20636;-76
2021/08/03 02:35:30;;;;;;;8.68;3.33;;;26.60;49.50;;;;;;5046996;28;20342;-76
2021/08/03 02:38:07;;;;;;;12.55;3.15;;;26.60;49.50;;;;;;5029543;28;20186;-76
2021/08/03 02:40:34;;;;;;;6.40;2.85;;;26.60;48.90;;;;;;5049652;28;20199;-75
2021/08/03 02:43:02;;;;;;;7.53;3.15;;;26.60;48.90;;;;;;5047253;28;20195;-74
2021/08/03 02:45:30;;;;;;;7.22;2.90;;;26.60;48.70;;;;;;5047178;28;20764;-76
2021/08/03 02:48:10;;;;;;;10.52;3.42;;;26.50;48.00;;;;;;5022322;28;20788;-76
2021/08/03 02:50:42;;;;;;;7.30;3.58;;;26.50;47.60;;;;;;5028486;28;20195;-75
2021/08/03 02:53:29;;;;;;;7.15;3.10;;;26.50;47.80;;;;;;5045329;28;20293;-75
2021/08/03 02:56:02;;;;;;;4.63;3.08;;;26.50;47.80;;;;;;5044043;28;20203;-75
2021/08/03 02:58:37;;;;;;;8.93;3.25;;;26.50;48.70;;;;;;5061891;28;20222;-77
2021/08/03 03:01:07;;;;;;;6.82;2.95;;;26.40;48.50;;;;;;5042967;28;20191;-74
2021/08/03 03:03:41;;;;;;;5.10;2.65;;;26.40;48.60;;;;;;5045311;28;20187;-76
2021/08/03 03:06:12;;;;;;;4.25;2.80;;;26.40;48.60;;;;;;5044293;28;20771;-75
2021/08/03 03:08:43;;;;;;;5.43;3.10;;;26.30;49.20;;;;;;5045205;28;20211;-75
2021/08/03 03:11:14;;;;;;;8.00;3.28;;;26.30;48.90;;;;;;5045051;28;20232;-75
2021/08/03 03:13:46;;;;;;;7.40;3.08;;;26.30;49.20;;;;;;5043249;28;20183;-75
2021/08/03 03:16:17;;;;;;;9.02;3.53;;;26.20;49.50;;;;;;5039105;28;20180;-76
2021/08/03 03:18:45;;;;;;;4.25;2.92;;;26.20;50.00;;;;;;5045177;28;20192;-75
2021/08/03 03:21:18;;;;;;;5.13;3.30;;;26.20;50.20;;;;;;5045798;28;20619;-75
2021/08/03 03:23:49;;;;;;;5.10;3.10;;;26.20;50.40;;;;;;5046913;28;20301;-76
2021/08/03 03:26:18;;;;;;;7.38;2.97;;;26.20;50.30;;;;;;5045800;28;20708;-75
2021/08/03 03:28:46;;;;;;;6.43;2.88;;;26.20;50.00;;;;;;5026285;28;20187;-76
2021/08/03 03:31:14;;;;;;;10.27;3.30;;;26.10;50.10;;;;;;5043825;28;20190;-76
2021/08/03 03:33:42;;;;;;;8.52;3.22;;;26.20;50.60;;;;;;5028772;28;20191;-75
2021/08/03 03:36:11;;;;;;;16.52;3.42;;;26.20;50.30;;;;;;5025080;28;20183;-75
2021/08/03 03:38:41;;;;;;;8.57;3.28;;;26.10;51.10;;;;;;5047214;28;20765;-76
2021/08/03 03:41:09;;;;;;;6.07;3.58;;;26.10;50.40;;;;;;5046330;28;20282;-77
2021/08/03 03:43:35;;;;;;;6.90;3.35;;;26.10;50.50;;;;;;5047011;28;20669;-76
2021/08/03 03:46:08;;;;;;;11.38;3.20;;;26.20;50.60;;;;;;5039071;28;20696;-74
2021/08/03 03:48:47;;;;;;;6.18;3.00;;;26.20;50.70;;;;;;5024488;28;20188;-75
2021/08/03 03:51:25;;;;;;;5.97;3.10;;;26.20;50.90;;;;;;5025287;28;20263;-74
2021/08/03 03:54:22;;;;;;;6.35;3.00;;;26.20;51.10;;;;;;5025641;28;20184;-75
2021/08/03 03:56:59;;;;;;;5.07;3.00;;;26.20;51.40;;;;;;5059907;28;20195;-75
2021/08/03 03:59:26;;;;;;;6.53;3.22;;;26.20;51.50;;;;;;5047536;28;20198;-76
2021/08/03 04:01:58;;;;;;;5.88;2.90;;;26.10;51.50;;;;;;5042992;28;20267;-75
2021/08/03 04:04:26;;;;;;;6.32;2.65;;;26.10;51.60;;;;;;5042375;28;20249;-75
2021/08/03 04:06:52;;;;;;;5.90;2.95;;;26.00;51.70;;;;;;5045089;28;20269;-75
2021/08/03 04:09:21;;;;;;;6.10;3.35;;;26.00;51.90;;;;;;5058015;28;20184;-76
2021/08/03 04:11:49;;;;;;;5.95;3.42;;;26.00;51.90;;;;;;5044092;28;20263;-74
2021/08/03 04:14:29;;;;;;;4.97;3.67;;;26.00;52.10;;;;;;5029212;28;20930;-76
2021/08/03 04:16:57;;;;;;;5.68;3.25;;;26.00;52.50;;;;;;5060881;28;20191;-75
2021/08/03 04:19:24;;;;;;;6.97;3.30;;;26.00;52.90;;;;;;5027690;28;20916;-76
2021/08/03 04:21:50;;;;;;;10.43;3.20;;;26.00;52.70;;;;;;5045189;28;20686;-76
2021/08/03 04:24:18;;;;;;;8.35;3.58;;;26.10;52.90;;;;;;5061322;28;20183;-75
2021/08/03 04:26:47;;;;;;;8.38;3.70;;;26.20;53.50;;;;;;5042674;28;20333;-75
2021/08/03 04:29:13;;;;;;;4.75;3.38;;;26.20;53.40;;;;;;5045613;28;20259;-75
2021/08/03 04:31:39;;;;;;;10.15;4.60;;;26.20;53.70;;;;;;5028800;28;20263;-75
2021/08/03 04:34:05;;;;;;;9.57;3.60;;;26.20;54.10;;;;;;5041832;28;20191;-76
2021/08/03 04:36:32;;;;;;;7.78;3.45;;;26.20;54.10;;;;;;5061774;28;20179;-75
2021/08/03 04:38:58;;;;;;;5.80;3.55;;;26.30;54.50;;;;;;5042133;28;20279;-74
2021/08/03 04:41:25;;;;;;;16.00;4.38;;;26.30;55.10;;;;;;5043916;28;20738;-75
2021/08/03 04:43:51;;;;;;;8.57;4.22;;;26.40;55.00;;;;;;5044094;28;20191;-76
2021/08/03 04:46:17;;;;;;;10.95;4.45;;;26.40;55.30;;;;;;5042979;28;20699;-75
2021/08/03 04:48:43;;;;;;;8.38;3.75;;;26.40;56.30;;;;;;5058921;28;20210;-76
2021/08/03 04:51:10;;;;;;;7.13;3.85;;;26.40;56.00;;;;;;5042339;28;20187;-75
2021/08/03 04:53:36;;;;;;;11.35;4.07;;;26.50;56.80;;;;;;5042381;28;20183;-76
2021/08/03 04:56:02;;;;;;;8.15;4.00;;;26.50;56.80;;;;;;5043945;28;20903;-76
2021/08/03 04:58:29;;;;;;;5.47;3.95;;;26.60;56.80;;;;;;5040891;28;20726;-76
2021/08/03 05:00:56;;;;;;;10.90;3.85;;;26.60;57.10;;;;;;5025729;28;20188;-75
2021/08/03 05:03:22;;;;;;;11.32;4.20;;;26.60;57.40;;;;;;5040546;28;20272;-75
2021/08/03 05:05:48;;;;;;;10.35;4.90;;;26.70;57.00;;;;;;5044291;28;20230;-76
2021/08/03 05:08:14;;;;;;;5.32;4.03;;;26.70;57.70;;;;;;5060081;28;20891;-76
2021/08/03 05:10:41;;;;;;;7.03;4.10;;;26.80;57.80;;;;;;5043380;28;20188;-76
2021/08/03 05:13:07;;;;;;;6.15;4.32;;;26.80;58.30;;;;;;5039879;28;20542;-75
2021/08/03 05:15:34;;;;;;;7.57;4.20;;;26.80;58.20;;;;;;5043542;28;20278;-75
2021/08/03 05:18:00;;;;;;;7.28;4.68;;;26.90;58.40;;;;;;5042256;28;20195;-76
2021/08/03 05:20:26;;;;;;;8.32;4.25;;;26.90;59.00;;;;;;5043090;28;20194;-76
2021/08/03 05:22:53;;;;;;;6.47;4.32;;;27.00;58.70;;;;;;5041238;28;20195;-75
2021/08/03 05:25:19;;;;;;;8.40;3.75;;;27.00;58.60;;;;;;5044891;28;20242;-75
2021/08/03 05:27:46;;;;;;;9.40;4.20;;;27.00;58.30;;;;;;5026346;28;20179;-75
2021/08/03 05:30:13;;;;;;;8.02;3.90;;;27.10;56.00;;;;;;5025341;28;20190;-76
2021/08/03 05:32:40;;;;;;;8.32;4.90;;;27.20;57.80;;;;;;5043612;28;20265;-76
2021/08/03 05:35:08;;;;;;;18.50;4.95;;;27.20;56.70;;;;;;5042839;28;20193;-76
2021/08/03 05:37:35;;;;;;;6.85;4.10;;;27.30;56.20;;;;;;5058061;28;20237;-76
2021/08/03 05:40:05;;;;;;;9.38;4.60;;;27.30;58.20;;;;;;5026409;28;20206;-76
2021/08/03 05:42:32;;;;;;;7.13;4.18;;;27.30;58.20;;;;;;5040543;28;20197;-76
2021/08/03 05:44:58;;;;;;;9.00;4.32;;;27.40;56.00;;;;;;5020893;28;20188;-76
2021/08/03 05:47:24;;;;;;;10.85;4.80;;;27.40;54.50;;;;;;5046621;28;20246;-75
2021/08/03 05:49:51;;;;;;;9.27;4.43;;;27.60;53.10;;;;;;5041770;28;20192;-75
2021/08/03 05:52:18;;;;;;;11.50;4.38;;;27.90;53.90;;;;;;5041077;28;20226;-75
2021/08/03 05:54:44;;;;;;;14.00;4.82;;;27.90;56.10;;;;;;5036866;28;20485;-75
2021/08/03 05:57:10;;;;;;;8.55;4.30;;;27.80;56.00;;;;;;5042730;28;20226;-75
2021/08/03 05:59:37;;;;;;;6.97;4.97;;;27.80;55.60;;;;;;5026452;28;20607;-75
2021/08/03 06:02:04;;;;;;;10.82;5.35;;;28.20;54.80;;;;;;5046401;28;20219;-75
2021/08/03 06:04:30;;;;;;;13.50;5.18;;;28.40;54.00;;;;;;5047714;28;20200;-75
2021/08/03 06:07:01;;;;;;;8.98;5.22;;;28.60;54.20;;;;;;5046000;28;20215;-75
2021/08/03 06:09:28;;;;;;;8.15;5.28;;;28.40;55.80;;;;;;5037724;28;20180;-75
2021/08/03 06:12:01;;;;;;;8.55;4.85;;;28.30;55.70;;;;;;5046736;28;20188;-76
2021/08/03 06:14:45;;;;;;;13.85;5.40;;;28.60;53.70;;;;;;5059597;28;20190;-75
2021/08/03 06:17:17;;;;;;;14.85;5.20;;;28.80;54.20;;;;;;5041704;28;20322;-76
2021/08/03 06:19:50;;;;;;;6.25;4.88;;;28.80;54.30;;;;;;5045433;28;20219;-75
2021/08/03 06:22:19;;;;;;;7.05;5.10;;;28.60;56.60;;;;;;5027773;28;20187;-74
2021/08/03 06:24:50;;;;;;;14.25;5.50;;;28.80;55.80;;;;;;5029912;28;20685;-75
2021/08/03 06:27:19;;;;;;;8.68;4.65;;;28.90;54.90;;;;;;5028894;28;20293;-76
2021/08/03 06:29:48;;;;;;;9.40;5.00;;;28.90;54.70;;;;;;5042577;28;20244;-75
2021/08/03 06:32:15;;;;;;;9.40;5.03;;;28.90;55.60;;;;;;5046283;28;20910;-74
2021/08/03 06:34:43;;;;;;;14.27;5.32;;;28.90;55.70;;;;;;5029685;28;20187;-75
2021/08/03 06:37:11;;;;;;;9.25;4.65;;;29.10;53.90;;;;;;5028820;28;20576;-75
2021/08/03 06:39:39;;;;;;;8.95;4.93;;;29.20;56.70;;;;;;5044789;28;20337;-76
2021/08/03 06:42:47;;;;;;;12.27;5.10;;;29.20;53.90;;;;;;5044627;28;20186;-75
2021/08/03 06:45:31;;;;;;;13.18;5.57;;;29.20;56.40;;;;;;5043926;28;20194;-75
2021/08/03 06:48:28;;;;;;;11.07;5.95;;;29.20;55.70;;;;;;5045707;28;20258;-74
2021/08/03 06:51:13;;;;;;;16.58;5.43;;;29.40;56.70;;;;;;5042684;28;20229;-74
2021/08/03 06:53:42;;;;;;;12.82;6.00;;;29.50;55.40;;;;;;5026575;28;20234;-75
2021/08/03 06:56:09;;;;;;;11.68;5.47;;;29.60;56.90;;;;;;5060187;28;20867;-75
2021/08/03 06:58:42;;;;;;;10.93;5.78;;;29.50;56.90;;;;;;5057448;28;20202;-75
2021/08/03 07:01:17;;;;;;;12.63;5.63;;;29.60;57.10;;;;;;5058541;28;20664;-75
2021/08/03 07:03:54;;;;;;;10.25;5.35;;;29.80;56.00;;;;;;5041202;28;20188;-76
2021/08/03 07:06:23;;;;;;;17.15;5.70;;;30.00;56.30;;;;;;5048982;28;20302;-75
2021/08/03 07:08:52;;;;;;;12.38;5.28;;;30.10;55.70;;;;;;5044416;28;20446;-76
2021/08/03 07:11:20;;;;;;;9.63;4.93;;;30.20;55.70;;;;;;5045262;28;20267;-76
2021/08/03 07:13:49;;;;;;;10.63;5.00;;;30.50;55.30;;;;;;5027589;28;20653;-76
2021/08/03 07:16:17;;;;;;;12.05;5.22;;;30.50;55.00;;;;;;5028113;28;20653;-75
2021/08/03 07:18:45;;;;;;;14.05;5.07;;;30.40;56.60;;;;;;5028518;28;20191;-76
2021/08/03 07:21:13;;;;;;;10.25;5.28;;;30.60;55.00;;;;;;5042865;28;20230;-75
2021/08/03 07:23:44;;;;;;;19.65;5.00;;;30.70;54.20;;;;;;5025965;28;20233;-74
2021/08/03 07:26:13;;;;;;;7.45;4.80;;;30.80;54.60;;;;;;5033940;28;20214;-73
2021/08/03 07:28:39;;;;;;;12.25;5.38;;;30.70;54.90;;;;;;5044892;28;20192;-76
2021/08/03 07:31:06;;;;;;;5.05;4.47;;;30.70;55.70;;;;;;5060614;28;20191;-75
2021/08/03 07:33:33;;;;;;;11.07;5.05;;;30.90;55.40;;;;;;5044150;28;20213;-73
2021/08/03 07:35:59;;;;;;;9.65;4.88;;;31.20;54.10;;;;;;5043781;28;20184;-75
2021/08/03 07:38:25;;;;;;;12.10;5.45;;;31.30;54.80;;;;;;5044150;28;20184;-74
2021/08/03 07:40:52;;;;;;;10.40;4.70;;;31.20;55.50;;;;;;5025758;28;20263;-74
2021/08/03 07:43:18;;;;;;;15.50;6.07;;;31.00;56.30;;;;;;5043989;28;20211;-75
2021/08/03 07:45:44;;;;;;;8.25;4.75;;;31.10;56.60;;;;;;5042458;28;20215;-74
2021/08/03 07:48:11;;;;;;;5.65;4.57;;;31.40;57.00;;;;;;5042827;28;20183;-74
2021/08/03 07:50:37;;;;;;;9.85;4.78;;;31.70;56.50;;;;;;5042771;28;20249;-74
2021/08/03 07:53:04;;;;;;;11.88;4.82;;;31.80;57.20;;;;;;5044815;28;20187;-74
2021/08/03 07:55:30;;;;;;;16.85;4.72;;;32.00;57.60;;;;;;5042461;28;20271;-74
2021/08/03 07:57:57;;;;;;;14.73;4.55;;;32.10;58.40;;;;;;5045651;28;20188;-73
2021/08/03 08:00:25;;;;;;;7.90;4.78;;;32.20;58.40;;;;;;5041912;28;20183;-74
2021/08/03 08:02:51;;;;;;;11.18;5.15;;;32.30;59.40;;;;;;5043252;28;20314;-73
2021/08/03 08:05:21;;;;;;;7.78;4.65;;;32.40;59.50;;;;;;5042856;28;20258;-74
2021/08/03 08:07:47;;;;;;;17.00;4.28;;;32.50;59.60;;;;;;5026566;28;20194;-74
2021/08/03 08:10:14;;;;;;;8.48;4.57;;;32.40;60.00;;;;;;5044365;28;20183;-74
2021/08/03 08:12:40;;;;;;;9.13;4.18;;;32.10;61.10;;;;;;5027064;28;20438;-74
2021/08/03 08:15:07;;;;;;;6.32;3.47;;;32.40;60.00;;;;;;5042988;28;20176;-73
2021/08/03 08:17:33;;;;;;;7.90;3.95;;;32.40;59.60;;;;;;5060468;28;20329;-74
2021/08/03 08:20:00;;;;;;;16.67;4.18;;;32.70;59.20;;;;;;5042110;28;20278;-74
2021/08/03 08:22:28;;;;;;;6.70;3.90;;;32.70;58.50;;;;;;5043319;28;20971;-72
2021/08/03 08:24:56;;;;;;;11.20;4.20;;;32.70;60.60;;;;;;5041812;28;20199;-75
2021/08/03 08:27:22;;;;;;;5.72;4.25;;;32.90;60.90;;;;;;5042984;28;20631;-74
2021/08/03 08:29:49;;;;;;;10.15;3.75;;;33.00;60.20;;;;;;5042357;28;20594;-74
2021/08/03 08:32:15;;;;;;;10.80;4.00;;;33.10;60.00;;;;;;5026934;28;20188;-74
2021/08/03 08:35:04;;;;;;;9.88;4.03;;;33.50;60.10;;;;;;5026655;28;20177;-74
2021/08/03 08:37:31;;;;;;;8.05;3.78;;;33.60;59.30;;;;;;5037451;28;20198;-75
2021/08/03 08:40:00;;;;;;;9.70;3.75;;;33.80;58.10;;;;;;5023293;28;20229;-73
2021/08/03 08:42:27;;;;;;;6.10;3.78;;;33.90;59.10;;;;;;5042078;28;20250;-73
2021/08/03 08:44:55;;;;;;;10.82;4.10;;;33.80;59.20;;;;;;5042275;28;20183;-73
2021/08/03 08:47:24;;;;;;;8.25;3.70;;;33.90;56.80;;;;;;5044547;28;20208;-74
2021/08/03 08:49:51;;;;;;;8.75;3.75;;;34.20;57.20;;;;;;5041321;28;20275;-73
2021/08/03 08:52:18;;;;;;;6.90;3.28;;;34.40;54.50;;;;;;5042759;28;20199;-74
2021/08/03 08:54:45;;;;;;;9.63;2.83;;;34.30;54.20;;;;;;5031236;28;20188;-74
2021/08/03 08:57:12;;;;;;;7.40;3.58;;;34.50;55.50;;;;;;5037840;28;20184;-76
2021/08/03 08:59:39;;;;;;;5.70;3.03;;;34.80;52.20;;;;;;5043065;28;20273;-75
2021/08/03 09:02:05;;;;;;;10.65;3.42;;;34.60;53.00;;;;;;5027123;28;20191;-75
2021/08/03 09:04:33;;;;;;;8.90;2.92;;;34.30;55.00;;;;;;5022627;28;20337;-76
2021/08/03 09:07:07;;;;;;;5.75;2.88;;;34.70;57.20;;;;;;5043019;28;20199;-76
2021/08/03 09:09:44;;;;;;;13.02;3.28;;;35.00;58.00;;;;;;5046534;28;20274;-75
2021/08/03 09:12:13;;;;;;;12.43;2.97;;;35.20;58.10;;;;;;5042432;28;20324;-75
2021/08/03 09:14:43;;;;;;;7.35;3.40;;;35.20;56.80;;;;;;5052606;28;20180;-75
2021/08/03 09:17:25;;;;;;;15.30;3.15;;;35.30;57.40;;;;;;5047470;28;20323;-76
2021/08/03 09:19:52;;;;;;;11.07;3.60;;;35.30;56.30;;;;;;5030722;28;20266;-76
2021/08/03 09:22:31;;;;;;;10.07;3.20;;;35.10;55.50;;;;;;5062892;28;20191;-76
2021/08/03 09:25:16;;;;;;;10.30;2.72;;;35.30;54.60;;;;;;5046217;28;20183;-75
2021/08/03 09:27:47;;;;;;;8.02;2.88;;;35.30;55.00;;;;;;5048592;28;20204;-75
2021/08/03 09:30:20;;;;;;;5.90;2.90;;;35.50;53.00;;;;;;5046697;28;20211;-76
2021/08/03 09:32:49;;;;;;;5.15;2.80;;;35.40;51.80;;;;;;5031478;28;20234;-75
2021/08/03 09:35:21;;;;;;;9.10;3.08;;;35.70;50.80;;;;;;5030722;28;20183;-76
2021/08/03 09:37:53;;;;;;;8.90;3.03;;;35.90;50.00;;;;;;5032819;28;20294;-75
2021/08/03 09:40:27;;;;;;;14.27;3.17;;;36.00;49.60;;;;;;5045114;28;20234;-75
2021/08/03 09:43:05;;;;;;;11.50;3.08;;;36.10;47.90;;;;;;5032529;28;20199;-76
2021/08/03 09:45:35;;;;;;;9.02;3.17;;;35.90;47.90;;;;;;5043650;28;20215;-76
2021/08/03 09:48:21;;;;;;;13.68;3.17;;;36.10;47.20;;;;;;5030686;28;20183;-76
2021/08/03 09:51:00;;;;;;;10.77;2.90;;;35.80;49.00;;;;;;5059977;28;21421;-76
2021/08/03 09:53:48;;;;;;;11.65;2.83;;;35.80;48.90;;;;;;5045402;28;20192;-75
2021/08/03 09:56:29;;;;;;;7.60;3.05;;;35.90;49.50;;;;;;5047182;28;20227;-78
2021/08/03 09:59:09;;;;;;;7.68;3.63;;;36.40;47.50;;;;;;5048745;28;20182;-76
2021/08/03 10:01:41;;;;;;;10.98;4.20;;;36.90;47.70;;;;;;5049171;28;20184;-74
2021/08/03 10:04:13;;;;;;;16.40;3.97;;;36.80;50.30;;;;;;5046168;28;20200;-76
2021/08/03 10:06:42;;;;;;;12.52;3.00;;;36.70;49.70;;;;;;5048230;28;20353;-75
2021/08/03 10:09:14;;;;;;;8.95;3.05;;;36.60;47.70;;;;;;5029280;28;20917;-75
2021/08/03 10:11:43;;;;;;;8.60;3.00;;;36.90;46.20;;;;;;5046205;28;20182;-75
2021/08/03 10:14:10;;;;;;;12.07;3.30;;;36.90;46.40;;;;;;5027924;28;20670;-75
2021/08/03 10:16:37;;;;;;;5.82;3.00;;;37.40;45.10;;;;;;5030795;28;20245;-74
2021/08/03 10:19:04;;;;;;;7.03;3.08;;;37.70;44.30;;;;;;5025806;28;20720;-74
2021/08/03 10:21:45;;;;;;;14.35;3.15;;;37.70;46.20;;;;;;5044598;28;20621;-75
2021/08/03 10:24:21;;;;;;;12.20;2.97;;;37.60;44.20;;;;;;5025135;28;20180;-75
2021/08/03 10:27:18;;;;;;;9.68;3.03;;;37.60;45.00;;;;;;5027600;28;20210;-76
2021/08/03 10:29:53;;;;;;;6.97;3.28;;;38.00;46.30;;;;;;5042085;28;20200;-75
2021/08/03 10:32:49;;;;;;;11.82;3.20;;;38.10;46.20;;;;;;5062900;28;20182;-75
2021/08/03 10:35:18;;;;;;;8.77;3.10;;;38.30;45.70;;;;;;5029454;28;20706;-75
2021/08/03 10:38:00;;;;;;;9.45;3.35;;;38.10;46.90;;;;;;5048069;28;20184;-75
2021/08/03 10:40:48;;;;;;;8.15;2.80;;;38.30;47.60;;;;;;5049237;28;20266;-75
2021/08/03 10:43:19;;;;;;;10.77;3.03;;;38.20;47.30;;;;;;5044117;28;20192;-75
2021/08/03 10:45:48;;;;;;;8.55;3.08;;;38.20;49.10;;;;;;5027775;28;20217;-76
2021/08/03 10:48:39;;;;;;;13.02;3.78;;;38.10;53.40;;;;;;5023791;28;20280;-75
2021/08/03 10:51:17;;;;;;;7.30;2.88;;;37.90;53.00;;;;;;5061494;28;20198;-74
2021/08/03 10:54:08;;;;;;;6.78;3.10;;;37.80;57.10;;;;;;5061436;28;20188;-74
2021/08/03 10:56:56;;;;;;;8.95;3.50;;;37.50;56.50;;;;;;5047664;28;20183;-76
2021/08/03 10:59:36;;;;;;;10.98;3.35;;;37.30;58.90;;;;;;5029584;28;20180;-76
2021/08/03 11:02:29;;;;;;;5.78;3.20;;;37.30;58.70;;;;;;5047425;28;20183;-74
2021/08/03 11:05:00;;;;;;;15.73;3.15;;;37.10;60.60;;;;;;5030450;28;20187;-75
2021/08/03 11:07:34;;;;;;;10.07;3.67;;;36.80;61.30;;;;;;5045650;28;20195;-75
2021/08/03 11:10:21;;;;;;;12.23;3.30;;;36.90;61.00;;;;;;5046018;28;20224;-74
2021/08/03 11:12:51;;;;;;;6.93;3.17;;;36.80;61.00;;;;;;5046243;28;20241;-76
2021/08/03 11:15:33;;;;;;;4.90;2.85;;;36.70;59.20;;;;;;5043623;28;20190;-74
2021/08/03 11:18:10;;;;;;;10.98;3.22;;;36.60;59.50;;;;;;5041436;28;20186;-76
2021/08/03 11:20:39;;;;;;;9.27;3.28;;;36.70;58.30;;;;;;5045306;28;20349;-75
2021/08/03 11:23:18;;;;;;;11.85;2.83;;;36.80;57.10;;;;;;5043790;28;20655;-75
2021/08/03 11:25:48;;;;;;;6.05;3.03;;;36.70;57.50;;;;;;5059207;28;20920;-77
2021/08/03 11:28:21;;;;;;;7.57;2.60;;;36.60;56.50;;;;;;5045807;28;20194;-76
2021/08/03 11:30:51;;;;;;;9.77;2.92;;;36.70;54.70;;;;;;5024341;28;20196;-75
2021/08/03 11:33:25;;;;;;;11.00;3.42;;;36.60;56.40;;;;;;5045078;28;20179;-76
2021/08/03 11:35:55;;;;;;;7.00;2.80;;;36.60;55.10;;;;;;5043325;28;20184;-78
2021/08/03 11:38:26;;;;;;;7.70;3.00;;;36.70;56.20;;;;;;5045705;28;20190;-78
2021/08/03 11:41:01;;;;;;;8.60;2.92;;;36.80;54.20;;;;;;5048415;28;20541;-77
2021/08/03 11:43:28;;;;;;;8.68;3.30;;;36.50;55.90;;;;;;5059144;28;20187;-75
2021/08/03 11:45:56;;;;;;;8.57;2.78;;;36.10;54.90;;;;;;5020979;28;20362;-76
2021/08/03 11:48:26;;;;;;;6.00;2.88;;;36.30;53.80;;;;;;5046842;28;20186;-76
2021/08/03 11:50:54;;;;;;;13.82;3.28;;;36.30;55.60;;;;;;5067904;28;21323;-76
2021/08/03 11:53:23;;;;;;;4.47;3.00;;;35.90;54.90;;;;;;5045407;28;20176;-76
2021/08/03 11:55:57;;;;;;;7.68;2.95;;;36.30;54.40;;;;;;5044372;28;20183;-75
2021/08/03 11:58:30;;;;;;;7.53;3.03;;;36.40;54.30;;;;;;5045666;28;20196;-76
2021/08/03 12:01:01;;;;;;;8.50;3.30;;;36.50;54.70;;;;;;5043524;28;20191;-75
2021/08/03 12:03:34;;;;;;;8.27;2.60;;;36.40;55.20;;;;;;5029705;28;20329;-75
2021/08/03 12:06:07;;;;;;;13.90;3.08;;;36.50;55.10;;;;;;5026745;28;20210;-75
2021/08/03 12:08:42;;;;;;;7.88;3.05;;;36.60;54.40;;;;;;5031301;28;20186;-76
2021/08/03 12:11:29;;;;;;;5.80;3.20;;;36.60;52.80;;;;;;5046510;28;20814;-76
2021/08/03 12:14:17;;;;;;;8.32;2.38;;;36.50;53.70;;;;;;5043912;28;20189;-77
2021/08/03 12:16:45;;;;;;;8.15;3.00;;;36.60;53.40;;;;;;5048052;28;20187;-76
2021/08/03 12:19:37;;;;;;;6.97;2.50;;;36.60;53.90;;;;;;5026541;28;20184;-76
2021/08/03 12:22:34;;;;;;;9.50;3.10;;;36.60;53.00;;;;;;5057068;28;20204;-77
2021/08/03 12:25:03;;;;;;;8.70;2.88;;;36.60;53.10;;;;;;5022194;28;20222;-75
2021/08/03 12:27:46;;;;;;;8.35;2.72;;;36.40;51.80;;;;;;5044748;28;20207;-76
2021/08/03 12:30:44;;;;;;;6.70;2.80;;;36.60;53.90;;;;;;5045043;28;20199;-75
2021/08/03 12:33:28;;;;;;;6.93;2.67;;;36.80;53.20;;;;;;5025221;28;20203;-75
2021/08/03 12:36:20;;;;;;;11.15;2.92;;;36.50;53.70;;;;;;5034223;28;20776;-76
2021/08/03 12:39:47;;;;;;;4.65;2.25;;;36.80;53.20;;;;;;5062168;28;20190;-76
2021/08/03 12:44:58;;;;;;;12.40;3.10;;;36.60;54.30;;;;;;5047644;28;20601;-78
2021/08/03 12:47:31;;;;;;;4.43;2.97;;;36.50;53.50;;;;;;5029751;28;20215;-76
2021/08/03 12:50:12;;;;;;;6.47;2.67;;;36.60;54.20;;;;;;5044670;28;20222;-78
2021/08/03 12:52:56;;;;;;;11.00;2.63;;;36.60;53.70;;;;;;5040710;28;20211;-77
2021/08/03 12:55:41;;;;;;;12.02;2.95;;;36.60;54.40;;;;;;5043048;28;20191;-75
2021/08/03 12:58:10;;;;;;;9.02;3.35;;;36.70;54.40;;;;;;5042373;28;20264;-78
2021/08/03 13:00:43;;;;;;;12.35;3.03;;;36.50;54.20;;;;;;5029027;28;20190;-78
2021/08/03 13:03:18;;;;;;;6.13;3.00;;;36.50;53.00;;;;;;5056595;28;20183;-78
2021/08/03 13:05:47;;;;;;;8.93;2.90;;;36.40;53.70;;;;;;5064056;28;20194;-75
2021/08/03 13:08:16;;;;;;;6.68;2.90;;;36.30;53.70;;;;;;5045484;28;20194;-78
2021/08/03 13:10:45;;;;;;;6.07;2.80;;;36.30;54.10;;;;;;5031276;28;20184;-75
2021/08/03 13:13:14;;;;;;;11.10;3.20;;;36.30;54.30;;;;;;5051230;28;20183;-75